Time;durP1;ratioP1;P1;durP2;ratioP2;P2;SDS_P1;SDS_P2;PMS_P1;PMS_P2;Temp;Humidity;BMP_temperature;BMP_pressure;BME280_temperature;BME280_humidity;BME280_pressure;Samples;Min_cycle;Max_cycle;Signal;HPM_P1;HPM_P2
2021/04/02 00:00:41;;;;;;;6.32;3.28;;;;;;;12.59;63.34;98250.03;4958556;28;45314;-79
2021/04/02 00:03:18;;;;;;;5.50;3.40;;;;;;;12.58;62.76;98244.84;4958609;28;45406;-79
2021/04/02 00:05:43;;;;;;;6.13;3.08;;;;;;;12.49;63.29;98252.06;4961447;28;45284;-79
2021/04/02 00:08:10;;;;;;;7.07;3.10;;;;;;;12.48;62.69;98250.38;4974796;28;45379;-79
2021/04/02 00:10:50;;;;;;;6.70;2.85;;;;;;;12.44;62.06;98254.38;4963094;28;47773;-79
2021/04/02 00:13:19;;;;;;;5.60;3.15;;;;;;;12.49;61.10;98258.19;4971549;28;45301;-79
2021/04/02 00:15:45;;;;;;;5.63;3.50;;;;;;;12.38;61.81;98258.53;4958573;28;45221;-79
2021/04/02 00:18:11;;;;;;;6.50;3.13;;;;;;;12.37;60.74;98252.41;4958575;28;45684;-79
2021/04/02 00:20:36;;;;;;;6.97;2.95;;;;;;;12.33;60.63;98248.38;4958744;28;45384;-79
2021/04/02 00:23:05;;;;;;;7.70;3.50;;;;;;;12.22;61.30;98256.69;4984476;28;46061;-79
2021/04/02 00:25:30;;;;;;;5.60;2.67;;;;;;;12.18;60.61;98250.03;4971851;28;45340;-79
2021/04/02 00:27:55;;;;;;;4.30;2.50;;;;;;;12.16;60.72;98252.03;4958401;28;45260;-79
2021/04/02 00:30:28;;;;;;;5.78;2.60;;;;;;;12.12;60.00;98248.88;4958133;28;46164;-79
2021/04/02 00:32:54;;;;;;;6.18;2.40;;;;;;;12.05;59.94;98243.38;4958327;28;45488;-79
2021/04/02 00:35:19;;;;;;;4.82;2.50;;;;;;;11.93;60.69;98245.50;4958475;28;45368;-79
2021/04/02 00:37:45;;;;;;;4.88;2.47;;;;;;;11.97;60.02;98243.34;4971091;28;45428;-79
2021/04/02 00:40:31;;;;;;;5.95;2.47;;;;;;;11.99;60.13;98241.34;4965054;28;45886;-79
2021/04/02 00:42:58;;;;;;;4.25;2.53;;;;;;;11.88;60.49;98239.81;4967276;28;45233;-79
2021/04/02 00:45:24;;;;;;;4.15;2.65;;;;;;;11.79;60.44;98232.81;4960467;28;45562;-79
2021/04/02 00:47:50;;;;;;;3.67;2.25;;;;;;;11.93;59.86;98234.00;4969611;28;45543;-79
2021/04/02 00:50:23;;;;;;;5.53;2.40;;;;;;;11.72;61.14;98232.66;4971178;28;45505;-79
2021/04/02 00:52:48;;;;;;;4.57;2.53;;;;;;;11.73;59.39;98236.13;4964863;28;45225;-79
2021/04/02 00:55:14;;;;;;;6.93;2.78;;;;;;;11.63;61.44;98236.31;4960567;28;45359;-79
2021/04/02 00:57:40;;;;;;;5.28;2.60;;;;;;;11.77;59.98;98232.16;4967190;28;45224;-79
2021/04/02 01:00:08;;;;;;;7.68;2.55;;;;;;;11.72;59.38;98229.13;4957760;28;45443;-79
2021/04/02 01:02:34;;;;;;;7.65;2.75;;;;;;;11.70;59.68;98228.47;4964114;28;45319;-79
2021/04/02 01:05:04;;;;;;;7.43;2.72;;;;;;;11.53;60.59;98225.78;4973780;28;45322;-79
2021/04/02 01:07:29;;;;;;;5.00;2.47;;;;;;;11.56;60.42;98220.13;4978048;28;45432;-79
2021/04/02 01:09:54;;;;;;;4.95;2.67;;;;;;;11.53;61.95;98225.78;4962711;28;46030;-79
2021/04/02 01:12:20;;;;;;;6.13;2.30;;;;;;;11.61;61.77;98231.13;4972715;28;45234;-79
2021/04/02 01:14:45;;;;;;;4.32;2.67;;;;;;;11.58;62.18;98228.78;4962389;28;45179;-79
2021/04/02 01:17:11;;;;;;;4.70;2.40;;;;;;;11.49;62.43;98243.94;4968337;28;45344;-79
2021/04/02 01:19:42;;;;;;;4.20;2.33;;;;;;;11.46;62.65;98240.75;4974097;28;45304;-79
2021/04/02 01:22:25;;;;;;;7.10;2.83;;;;;;;11.43;62.78;98238.41;4974651;28;45201;-79
2021/04/02 01:25:13;;;;;;;4.03;2.63;;;;;;;11.35;63.72;98237.38;4969893;28;45300;-79
2021/04/02 01:28:27;;;;;;;5.97;2.70;;;;;;;11.22;63.02;98229.84;4962699;28;45162;-79
2021/04/02 01:30:55;;;;;;;3.25;2.20;;;;;;;11.17;62.17;98237.47;4960870;28;46197;-79
2021/04/02 01:33:20;;;;;;;6.85;2.65;;;;;;;11.26;63.19;98226.84;4960743;28;45274;-79
2021/04/02 01:35:47;;;;;;;3.92;2.45;;;;;;;11.22;62.81;98232.50;4960826;28;45563;-79
2021/04/02 01:38:22;;;;;;;4.38;2.30;;;;;;;11.35;61.32;98229.41;4979396;28;45544;-79
2021/04/02 01:40:51;;;;;;;4.90;2.50;;;;;;;11.40;60.53;98228.91;4962216;28;45552;-79
2021/04/02 01:43:20;;;;;;;5.13;2.55;;;;;;;11.40;61.70;98226.22;4960793;28;45238;-79
2021/04/02 01:45:47;;;;;;;4.60;2.45;;;;;;;11.49;61.40;98225.28;4960500;28;45200;-79
2021/04/02 01:48:16;;;;;;;5.30;2.80;;;;;;;11.43;61.36;98225.91;4979783;28;45376;-79
2021/04/02 01:50:45;;;;;;;5.40;2.42;;;;;;;11.52;60.86;98224.13;4970283;28;45610;-79
2021/04/02 01:53:12;;;;;;;6.78;2.67;;;;;;;11.30;62.55;98223.72;4961694;28;45376;-79
2021/04/02 01:55:39;;;;;;;5.60;2.72;;;;;;;11.21;62.74;98224.69;4966381;28;45347;-79
2021/04/02 01:58:06;;;;;;;5.75;2.65;;;;;;;11.12;63.38;98225.66;4966150;28;45509;-79
2021/04/02 02:00:41;;;;;;;7.68;2.63;;;;;;;11.10;63.48;98223.13;4960410;28;45427;-79
2021/04/02 02:03:09;;;;;;;40.55;23.13;;;;;;;11.16;61.74;98227.00;4960349;28;45333;-79
2021/04/02 02:05:34;;;;;;;10.07;6.72;;;;;;;11.10;62.19;98225.81;4961992;28;45310;-79
2021/04/02 02:08:02;;;;;;;7.25;3.05;;;;;;;11.08;61.98;98223.31;4977497;28;45292;-79
2021/04/02 02:10:29;;;;;;;16.10;4.20;;;;;;;11.17;61.21;98210.03;4960309;28;45871;-79
2021/04/02 02:12:56;;;;;;;8.57;2.67;;;;;;;11.18;61.92;98217.03;4973447;28;45334;-79
2021/04/02 02:15:23;;;;;;;9.00;2.70;;;;;;;11.21;62.58;98214.03;4959522;28;45249;-79
2021/04/02 02:17:54;;;;;;;5.10;2.42;;;;;;;11.21;62.03;98216.72;4960104;28;46069;-79
2021/04/02 02:20:21;;;;;;;9.43;3.00;;;;;;;11.29;61.32;98214.06;4969613;28;45378;-79
2021/04/02 02:22:47;;;;;;;8.10;2.72;;;;;;;11.18;62.32;98217.03;4977929;28;45619;-79
2021/04/02 02:25:13;;;;;;;5.85;2.47;;;;;;;11.12;61.64;98218.50;4977018;28;45471;-80
2021/04/02 02:27:39;;;;;;;5.97;2.65;;;;;;;11.02;64.13;98218.59;4985307;28;45181;-79
2021/04/02 02:30:10;;;;;;;5.95;2.90;;;;;;;10.87;64.50;98215.72;4981444;28;45486;-79
2021/04/02 02:32:36;;;;;;;6.97;2.90;;;;;;;10.82;64.70;98210.06;4977513;28;45243;-79
2021/04/02 02:35:02;;;;;;;5.05;2.97;;;;;;;10.72;64.75;98220.78;4979187;28;45292;-78
2021/04/02 02:37:27;;;;;;;3.95;2.50;;;;;;;10.73;64.97;98214.47;4969581;28;45415;-80
2021/04/02 02:39:53;;;;;;;7.00;2.95;;;;;;;10.72;64.87;98209.34;4980265;28;45421;-80
2021/04/02 02:42:19;;;;;;;4.13;2.42;;;;;;;10.70;65.19;98211.31;4972306;28;45291;-81
2021/04/02 02:44:45;;;;;;;7.53;2.80;;;;;;;10.67;65.38;98193.03;4959602;28;45221;-80
2021/04/02 02:47:10;;;;;;;4.47;2.67;;;;;;;10.66;65.31;98208.13;4976725;28;45524;-80
2021/04/02 02:49:38;;;;;;;6.28;2.90;;;;;;;10.62;64.74;98201.44;4975622;28;46705;-80
2021/04/02 02:52:04;;;;;;;4.20;2.65;;;;;;;10.56;65.45;98207.41;4980334;28;45564;-80
2021/04/02 02:54:31;;;;;;;5.30;2.53;;;;;;;10.62;65.02;98202.31;4983300;28;45324;-80
2021/04/02 02:56:58;;;;;;;5.20;2.90;;;;;;;10.50;66.34;98206.19;4975674;28;45414;-80
2021/04/02 02:59:25;;;;;;;5.72;3.10;;;;;;;10.50;66.00;98206.19;4964093;28;45427;-80
2021/04/02 03:01:53;;;;;;;5.57;3.08;;;;;;;10.39;66.38;98201.09;4972643;28;45446;-80
2021/04/02 03:04:20;;;;;;;5.15;3.08;;;;;;;10.32;67.09;98206.22;4979018;28;45379;-80
2021/04/02 03:06:47;;;;;;;6.50;2.80;;;;;;;10.28;67.20;98207.53;4979189;28;45253;-80
2021/04/02 03:09:16;;;;;;;4.53;2.58;;;;;;;10.31;65.52;98196.59;4982801;28;45942;-79
2021/04/02 03:11:43;;;;;;;4.00;2.80;;;;;;;10.25;65.68;98198.03;4965876;28;45351;-79
2021/04/02 03:14:11;;;;;;;5.93;3.10;;;;;;;10.25;66.21;98198.03;4978658;28;45255;-79
2021/04/02 03:16:46;;;;;;;6.63;2.67;;;;;;;10.14;66.76;98206.25;4980204;28;45406;-79
2021/04/02 03:19:15;;;;;;;7.18;2.95;;;;;;;10.17;65.65;98192.66;4986144;28;45871;-79
2021/04/02 03:21:41;;;;;;;5.88;2.63;;;;;;;10.25;66.38;98192.72;4963039;28;45370;-79
2021/04/02 03:24:07;;;;;;;6.40;2.97;;;;;;;10.19;65.64;98198.66;4959666;28;45387;-79
2021/04/02 03:26:35;;;;;;;6.55;2.78;;;;;;;10.16;65.82;98191.00;4974032;28;45297;-79
2021/04/02 03:29:01;;;;;;;6.63;3.22;;;;;;;10.24;65.86;98192.88;4971079;28;46564;-79
2021/04/02 03:31:28;;;;;;;4.32;2.80;;;;;;;10.22;66.94;98190.38;4983678;28;45447;-79
2021/04/02 03:33:55;;;;;;;4.25;2.70;;;;;;;10.14;66.68;98191.13;4976217;28;45263;-79
2021/04/02 03:36:25;;;;;;;5.55;3.10;;;;;;;9.91;68.29;98199.59;4975568;28;45333;-79
2021/04/02 03:38:52;;;;;;;5.23;2.97;;;;;;;9.87;69.02;98192.91;4983607;28;46345;-79
2021/04/02 03:41:30;;;;;;;8.73;3.45;;;;;;;9.81;69.45;98200.69;4974000;28;45399;-79
2021/04/02 03:43:57;;;;;;;4.55;2.88;;;;;;;9.97;67.97;98194.66;4971833;28;45285;-79
2021/04/02 03:46:25;;;;;;;4.15;2.55;;;;;;;10.11;68.44;98194.09;4975131;28;45419;-79
2021/04/02 03:48:54;;;;;;;7.57;3.20;;;;;;;9.99;68.10;98201.50;4966956;28;47966;-79
2021/04/02 03:51:23;;;;;;;4.97;2.60;;;;;;;9.93;68.42;98196.78;4976152;28;45522;-80
2021/04/02 03:53:52;;;;;;;7.15;2.90;;;;;;;10.04;67.20;98201.88;4977736;28;45367;-79
2021/04/02 03:56:25;;;;;;;6.30;3.45;;;;;;;9.98;68.09;98191.84;4969842;28;45518;-79
2021/04/02 03:58:52;;;;;;;5.43;2.97;;;;;;;9.88;68.28;98193.75;4973733;28;46326;-79
2021/04/02 04:01:23;;;;;;;6.63;3.10;;;;;;;10.07;67.34;98190.09;4978282;28;45266;-79
2021/04/02 04:03:51;;;;;;;7.50;2.90;;;;;;;10.09;67.45;98196.06;4963702;28;45279;-79
2021/04/02 04:06:19;;;;;;;15.57;6.70;;;;;;;10.05;66.77;98190.25;4978302;28;45225;-79
2021/04/02 04:08:47;;;;;;;14.75;7.57;;;;;;;9.97;66.63;98189.34;4982906;28;46540;-79
2021/04/02 04:11:16;;;;;;;7.40;3.70;;;;;;;10.03;66.28;98192.22;4973132;28;45461;-79
2021/04/02 04:13:45;;;;;;;4.97;3.00;;;;;;;10.07;66.12;98192.75;4974522;28;45279;-79
2021/04/02 04:16:14;;;;;;;11.05;3.58;;;;;;;9.90;67.53;98189.94;4964338;28;45535;-79
2021/04/02 04:18:42;;;;;;;6.60;3.55;;;;;;;9.81;68.00;98185.56;4973159;28;46740;-79
2021/04/02 04:21:09;;;;;;;6.97;3.40;;;;;;;9.80;68.54;98186.56;4986263;28;45251;-79
2021/04/02 04:23:36;;;;;;;6.25;3.30;;;;;;;9.83;68.39;98196.03;4959999;28;45423;-79
2021/04/02 04:26:02;;;;;;;5.07;2.95;;;;;;;9.89;67.80;98198.91;4963831;28;45405;-79
2021/04/02 04:28:28;;;;;;;5.13;2.95;;;;;;;9.85;69.49;98200.19;4971952;28;45966;-79
2021/04/02 04:30:58;;;;;;;6.80;3.40;;;;;;;9.74;68.64;98197.78;4964637;28;45369;-79
2021/04/02 04:33:25;;;;;;;8.52;3.20;;;;;;;9.66;69.30;98200.38;4977788;28;45342;-79
2021/04/02 04:35:52;;;;;;;4.78;2.90;;;;;;;9.62;68.74;98199.81;4974912;28;45507;-79
2021/04/02 04:38:18;;;;;;;7.82;3.10;;;;;;;9.61;69.38;98198.16;4980404;28;45605;-79
2021/04/02 04:40:44;;;;;;;6.78;3.17;;;;;;;9.58;69.79;98201.09;4961419;28;45324;-80
2021/04/02 04:43:13;;;;;;;6.53;3.60;;;;;;;9.63;69.01;98209.44;4962141;28;45315;-80
2021/04/02 04:45:39;;;;;;;4.63;2.78;;;;;;;9.66;69.47;98205.66;4969443;28;45497;-80
2021/04/02 04:48:05;;;;;;;4.88;2.60;;;;;;;9.75;67.26;98202.97;4988695;28;45506;-80
2021/04/02 04:50:31;;;;;;;6.85;3.30;;;;;;;9.60;67.93;98213.25;4985054;28;45395;-80
2021/04/02 04:53:15;;;;;;;5.22;2.75;;;;;;;9.49;69.13;98200.19;4964967;28;45320;-80
2021/04/02 04:55:43;;;;;;;6.50;2.90;;;;;;;9.47;69.85;98199.53;4981820;28;45556;-80
2021/04/02 04:58:11;;;;;;;6.72;3.00;;;;;;;9.40;69.94;98199.28;4974104;28;46037;-80
2021/04/02 05:00:40;;;;;;;8.55;3.17;;;;;;;9.37;69.26;98199.56;4961307;28;45272;-79
2021/04/02 05:03:08;;;;;;;8.45;3.78;;;;;;;9.39;69.39;98194.94;4968126;28;45320;-79
2021/04/02 05:05:37;;;;;;;5.75;2.70;;;;;;;9.34;70.33;98198.06;4965298;28;45556;-80
2021/04/02 05:08:08;;;;;;;7.55;4.03;;;;;;;9.41;69.21;98192.16;4984630;28;46149;-79
2021/04/02 05:10:35;;;;;;;6.90;3.20;;;;;;;9.28;69.78;98190.72;4971353;28;45540;-79
2021/04/02 05:13:01;;;;;;;5.93;2.60;;;;;;;9.19;70.20;98187.13;4973239;28;45576;-78
2021/04/02 05:15:28;;;;;;;5.22;3.13;;;;;;;9.26;70.72;98190.00;4978359;28;45375;-78
2021/04/02 05:17:54;;;;;;;6.80;2.80;;;;;;;9.31;70.51;98186.91;4971961;28;46098;-78
2021/04/02 05:20:27;;;;;;;7.38;2.67;;;;;;;9.29;69.37;98187.06;4966098;28;45534;-78
2021/04/02 05:22:52;;;;;;;4.82;2.75;;;;;;;9.37;68.62;98190.78;4987590;28;45457;-79
2021/04/02 05:25:18;;;;;;;8.65;3.22;;;;;;;9.37;68.57;98193.44;4977975;28;45793;-77
2021/04/02 05:27:43;;;;;;;7.50;2.90;;;;;;;9.37;68.92;98188.13;4978232;28;46103;-79
2021/04/02 05:30:09;;;;;;;5.25;2.60;;;;;;;9.47;67.20;98191.56;4965624;28;45410;-79
2021/04/02 05:32:35;;;;;;;6.90;2.97;;;;;;;9.39;66.96;98180.84;4978741;28;45473;-78
2021/04/02 05:35:00;;;;;;;6.95;3.03;;;;;;;9.42;68.01;98196.47;4968878;28;45456;-78
2021/04/02 05:37:25;;;;;;;8.75;3.85;;;;;;;9.47;68.18;98191.56;4973086;28;45415;-75
2021/04/02 05:39:51;;;;;;;10.85;4.97;;;;;;;9.55;68.16;98196.09;4972457;28;45398;-75
2021/04/02 05:42:22;;;;;;;6.45;3.30;;;;;;;9.55;69.37;98194.28;4965054;28;45513;-75
2021/04/02 05:44:51;;;;;;;7.50;3.13;;;;;;;9.64;68.48;98197.84;4966443;28;45764;-75
2021/04/02 05:47:17;;;;;;;5.00;3.40;;;;;;;9.56;69.20;98201.28;4976907;28;45592;-77
2021/04/02 05:49:45;;;;;;;7.18;3.25;;;;;;;9.67;69.42;98196.72;4976825;28;45501;-77
2021/04/02 05:52:12;;;;;;;4.57;2.95;;;;;;;9.76;69.02;98196.66;4975597;28;45422;-77
2021/04/02 05:54:43;;;;;;;5.00;2.92;;;;;;;9.73;68.23;98202.28;4978477;28;45561;-78
2021/04/02 05:57:09;;;;;;;7.13;2.92;;;;;;;9.74;68.29;98198.63;4976875;28;45450;-78
2021/04/02 05:59:35;;;;;;;5.68;2.70;;;;;;;9.78;68.66;98200.00;4977323;28;45583;-78
2021/04/02 06:02:01;;;;;;;5.03;2.97;;;;;;;9.82;68.66;98197.84;4986290;28;45510;-78
2021/04/02 06:04:29;;;;;;;5.70;3.15;;;;;;;9.88;68.66;98201.72;4975875;28;45148;-77
2021/04/02 06:06:55;;;;;;;6.55;3.10;;;;;;;9.99;68.56;98205.97;4968360;28;46028;-78
2021/04/02 06:09:21;;;;;;;6.22;3.00;;;;;;;9.99;68.32;98200.66;4971124;28;45513;-78
2021/04/02 06:11:47;;;;;;;6.88;3.58;;;;;;;10.00;67.88;98208.47;4964915;28;45459;-78
2021/04/02 06:14:12;;;;;;;7.63;3.70;;;;;;;10.07;69.18;98206.03;4962901;28;45647;-79
2021/04/02 06:16:38;;;;;;;6.85;3.30;;;;;;;9.96;70.60;98207.13;4975735;28;45467;-79
2021/04/02 06:19:09;;;;;;;9.27;4.18;;;;;;;10.03;70.22;98209.97;4961939;28;45754;-78
2021/04/02 06:22:04;;;;;;;5.78;3.60;;;;;;;10.04;70.31;98207.19;4962115;28;45435;-78
2021/04/02 06:24:36;;;;;;;8.27;3.53;;;;;;;10.07;70.44;98195.41;4958370;28;45395;-78
2021/04/02 06:27:04;;;;;;;5.22;3.05;;;;;;;10.44;66.86;98201.50;4959843;28;47130;-78
2021/04/02 06:29:30;;;;;;;7.68;3.33;;;;;;;10.48;69.23;98201.03;4958157;28;45555;-78
2021/04/02 06:31:57;;;;;;;5.20;3.42;;;;;;;10.33;70.42;98203.41;4965711;28;45413;-78
2021/04/02 06:34:26;;;;;;;7.10;3.25;;;;;;;10.40;69.07;98197.50;4972204;28;45373;-79
2021/04/02 06:36:59;;;;;;;7.88;3.60;;;;;;;10.32;71.35;98195.59;4975318;28;45409;-81
2021/04/02 06:39:30;;;;;;;5.95;3.40;;;;;;;10.25;70.31;98199.88;4976339;28;45596;-80
2021/04/02 06:41:56;;;;;;;;;;;;;;;10.11;69.92;98204.72;4981508;28;45434;-80
2021/04/02 06:44:23;;;;;;;7.63;4.15;;;;;;;10.11;71.98;98207.38;4977408;28;45516;-80
2021/04/02 06:46:48;;;;;;;8.27;3.58;;;;;;;10.23;70.77;98213.28;4976723;28;46176;-79
2021/04/02 06:49:15;;;;;;;6.80;3.28;;;;;;;10.28;70.26;98211.00;4975194;28;45348;-80
2021/04/02 06:51:42;;;;;;;7.88;3.83;;;;;;;10.29;69.33;98211.84;4974586;28;45461;-80
2021/04/02 06:54:11;;;;;;;7.25;3.33;;;;;;;10.29;70.51;98214.50;4972324;28;45684;-79
2021/04/02 06:56:42;;;;;;;7.00;3.88;;;;;;;10.43;69.24;98210.47;4967236;28;45416;-80
2021/04/02 06:59:08;;;;;;;;;;;;;;;10.50;70.92;98215.00;4970879;28;45433;-79
2021/04/02 07:01:35;;;;;;;6.97;4.10;;;;;;;10.47;71.63;98210.00;4966854;28;45309;-79
2021/04/02 07:04:01;;;;;;;8.38;4.25;;;;;;;10.60;69.64;98204.28;4966602;28;45287;-79
2021/04/02 07:06:27;;;;;;;7.50;3.97;;;;;;;10.63;71.51;98209.28;4966557;28;46380;-79
2021/04/02 07:08:54;;;;;;;6.35;3.65;;;;;;;10.56;71.67;98202.09;4964593;28;45522;-79
2021/04/02 07:11:21;;;;;;;6.72;3.60;;;;;;;10.65;71.29;98196.66;4961075;28;45332;-79
2021/04/02 07:13:51;;;;;;;7.20;3.60;;;;;;;10.70;70.29;98195.38;4958768;28;45617;-79
2021/04/02 07:16:22;;;;;;;;;;;;;;;10.76;70.81;98195.53;4973653;28;45300;-79
2021/04/02 07:18:49;;;;;;;9.20;3.65;;;;;;;10.88;70.01;98195.25;4971148;28;45216;-79
2021/04/02 07:21:16;;;;;;;7.40;4.05;;;;;;;10.77;71.22;98191.06;4974511;28;45284;-79
2021/04/02 07:23:42;;;;;;;6.90;3.33;;;;;;;10.84;70.65;98185.94;4970770;28;45474;-79
2021/04/02 07:26:12;;;;;;;5.70;3.60;;;;;;;10.96;71.02;98187.31;4974832;28;45376;-79
2021/04/02 07:28:41;;;;;;;7.93;3.40;;;;;;;11.02;70.43;98181.34;4970958;28;45257;-79
2021/04/02 07:31:08;;;;;;;5.20;3.10;;;;;;;11.06;69.98;98185.38;4974931;28;45330;-79
2021/04/02 07:33:39;;;;;;;7.22;3.47;;;;;;;11.23;70.05;98188.09;4971934;28;45470;-79
2021/04/02 07:36:05;;;;;;;5.57;3.53;;;;;;;11.31;69.87;98180.13;4969402;28;45367;-79
2021/04/02 07:38:34;;;;;;;4.55;3.28;;;;;;;11.21;69.44;98179.44;4965365;28;46060;-79
2021/04/02 07:41:15;;;;;;;6.97;3.30;;;;;;;11.30;70.63;98185.59;4971804;28;45486;-79
2021/04/02 07:43:52;;;;;;;6.07;3.95;;;;;;;11.38;70.66;98183.81;4964295;28;45388;-79
2021/04/02 07:46:25;;;;;;;8.48;3.75;;;;;;;11.55;70.44;98186.50;4964885;28;45355;-79
2021/04/02 07:48:59;;;;;;;7.18;3.90;;;;;;;11.79;70.01;98188.38;4964539;28;45672;-79
2021/04/02 07:51:43;;;;;;;6.00;3.53;;;;;;;11.81;70.95;98186.38;4965753;28;45379;-79
2021/04/02 07:54:19;;;;;;;6.60;3.50;;;;;;;12.06;70.92;98190.91;4959471;28;45479;-79
2021/04/02 07:56:55;;;;;;;9.25;4.50;;;;;;;12.24;69.30;98186.22;4967810;28;45372;-79
2021/04/02 07:59:37;;;;;;;6.20;3.72;;;;;;;12.33;68.96;98188.88;4966989;28;45162;-79
2021/04/02 08:02:05;;;;;;;8.82;4.97;;;;;;;12.59;67.19;98183.34;4963577;28;45982;-79
2021/04/02 08:04:48;;;;;;;9.88;4.85;;;;;;;12.54;68.78;98185.69;4968345;28;45303;-79
2021/04/02 08:07:18;;;;;;;8.82;4.85;;;;;;;12.70;67.12;98177.63;4964675;28;45618;-79
2021/04/02 08:09:50;;;;;;;12.10;5.90;;;;;;;12.75;67.53;98184.31;4964724;28;45407;-79
2021/04/02 08:12:16;;;;;;;11.60;6.20;;;;;;;12.80;67.51;98180.09;4958036;28;45395;-79
2021/04/02 08:14:48;;;;;;;9.07;4.60;;;;;;;12.97;67.06;98180.06;4962513;28;45348;-79
2021/04/02 08:17:19;;;;;;;8.32;4.10;;;;;;;12.95;63.94;98190.06;4969638;28;46079;-79
2021/04/02 08:19:46;;;;;;;9.20;4.53;;;;;;;13.15;63.49;98179.78;4961902;28;45435;-79
2021/04/02 08:22:14;;;;;;;8.27;4.22;;;;;;;13.37;61.83;98185.38;4965649;28;45233;-79
2021/04/02 08:24:44;;;;;;;9.48;4.57;;;;;;;13.66;61.66;98176.69;4961998;28;45230;-79
2021/04/02 08:27:11;;;;;;;19.38;5.00;;;;;;;14.06;61.04;98183.75;4964654;28;45394;-79
2021/04/02 08:29:38;;;;;;;9.52;4.30;;;;;;;14.38;60.12;98176.44;4956412;28;45327;-79
2021/04/02 08:32:07;;;;;;;9.13;4.18;;;;;;;14.79;58.61;98173.38;4964132;28;45359;-79
2021/04/02 08:34:34;;;;;;;9.80;3.90;;;;;;;15.04;58.77;98175.75;4961053;28;45418;-79
2021/04/02 08:37:06;;;;;;;11.93;4.60;;;;;;;14.93;57.90;98168.19;4963323;28;47185;-79
2021/04/02 08:39:33;;;;;;;7.53;4.10;;;;;;;15.46;55.83;98158.13;4963940;28;45422;-79
2021/04/02 08:42:02;;;;;;;10.75;5.03;;;;;;;16.42;51.77;98161.44;4968507;28;45415;-80
2021/04/02 08:44:36;;;;;;;6.88;4.00;;;;;;;17.96;49.76;98163.09;4981484;28;45631;-79
2021/04/02 08:47:07;;;;;;;10.85;4.60;;;;;;;20.46;44.60;98155.69;4966257;28;46069;-80
2021/04/02 08:49:42;;;;;;;10.82;4.85;;;;;;;22.04;41.78;98147.91;4968697;28;45415;-80
2021/04/02 08:52:17;;;;;;;9.52;4.10;;;;;;;22.67;40.08;98152.88;4970677;28;45499;-80
2021/04/02 08:54:45;;;;;;;7.70;3.97;;;;;;;23.22;36.76;98143.44;4966334;28;45287;-77
2021/04/02 08:57:12;;;;;;;6.88;4.13;;;;;;;23.53;35.82;98140.53;4972218;28;45870;-83
2021/04/02 08:59:41;;;;;;;10.60;4.63;;;;;;;24.03;35.29;98139.81;4959358;28;45303;-83
2021/04/02 09:02:07;;;;;;;12.18;4.10;;;;;;;23.75;35.76;98148.81;4962333;28;45738;-82
2021/04/02 09:04:33;;;;;;;10.82;3.92;;;;;;;24.05;35.00;98144.97;4966858;28;45611;-81
2021/04/02 09:06:59;;;;;;;8.75;3.75;;;;;;;24.61;34.26;98136.06;4961824;28;45320;-81
2021/04/02 09:09:28;;;;;;;5.85;3.60;;;;;;;24.76;28.58;98136.28;4965589;28;45522;-81
2021/04/02 09:11:54;;;;;;;6.70;3.78;;;;;;;24.86;30.11;98134.78;4957278;28;45220;-80
2021/04/02 09:14:20;;;;;;;5.72;3.67;;;;;;;25.47;29.46;98126.53;4963911;28;45690;-82
2021/04/02 09:16:47;;;;;;;6.70;3.45;;;;;;;25.78;29.26;98131.44;4972699;28;45463;-80
2021/04/02 09:19:14;;;;;;;7.90;3.60;;;;;;;25.88;31.68;98123.38;4957528;28;45492;-81
2021/04/02 09:21:40;;;;;;;6.55;3.17;;;;;;;25.07;29.60;98127.69;4975775;28;45551;-80
2021/04/02 09:24:07;;;;;;;5.75;3.30;;;;;;;25.55;31.61;98121.69;4961536;28;45691;-80
2021/04/02 09:26:43;;;;;;;11.15;3.55;;;;;;;24.59;29.10;98119.16;4972216;28;46459;-80
2021/04/02 09:29:10;;;;;;;8.45;3.60;;;;;;;25.19;31.32;98122.13;4968133;28;45242;-80
2021/04/02 09:31:37;;;;;;;5.25;3.28;;;;;;;25.06;29.87;98115.97;4966275;28;45273;-80
2021/04/02 09:34:12;;;;;;;7.50;3.20;;;;;;;25.25;29.71;98121.09;4962331;28;45337;-80
2021/04/02 09:36:41;;;;;;;5.22;3.00;;;;;;;24.00;30.76;98112.31;4969478;28;45428;-81
2021/04/02 09:39:06;;;;;;;6.30;3.75;;;;;;;23.42;32.91;98120.53;4962490;28;45257;-82
2021/04/02 09:41:32;;;;;;;7.82;3.38;;;;;;;23.57;33.37;98115.41;4964711;28;45521;-81
2021/04/02 09:44:07;;;;;;;7.25;3.30;;;;;;;23.55;33.85;98108.56;4967486;28;45261;-84
2021/04/02 09:46:35;;;;;;;7.13;3.15;;;;;;;23.42;32.22;98105.06;4960143;28;48180;-82
2021/04/02 09:49:05;;;;;;;6.43;3.25;;;;;;;23.29;32.57;98102.66;4969253;28;45332;-85
2021/04/02 09:51:32;;;;;;;6.32;3.17;;;;;;;23.24;32.80;98099.84;4978307;28;45426;-82
2021/04/02 09:53:58;;;;;;;10.25;4.25;;;;;;;23.17;33.94;98094.53;4990381;28;45603;-83
2021/04/02 09:56:24;;;;;;;7.85;4.05;;;;;;;23.59;35.42;98096.13;4978444;28;46442;-82
2021/04/02 09:58:49;;;;;;;8.50;3.72;;;;;;;23.45;33.23;98095.66;4969119;28;45437;-83
2021/04/02 10:01:15;;;;;;;9.30;3.95;;;;;;;23.46;33.44;98087.25;4962818;28;45353;-84
2021/04/02 10:03:40;;;;;;;8.80;3.70;;;;;;;23.49;33.55;98085.09;4962922;28;45248;-84
2021/04/02 10:06:06;;;;;;;7.38;3.88;;;;;;;23.03;36.43;98080.47;4975780;28;46193;-85
2021/04/02 10:08:31;;;;;;;11.10;4.13;;;;;;;23.20;33.32;98076.97;4961845;28;45393;-85
2021/04/02 10:10:57;;;;;;;9.13;4.25;;;;;;;23.35;34.33;98076.44;4960335;28;45479;-85
2021/04/02 10:13:22;;;;;;;8.90;3.95;;;;;;;23.12;33.41;98075.47;4967101;28;45376;-83
2021/04/02 10:15:47;;;;;;;10.60;4.20;;;;;;;23.17;34.68;98070.13;4975600;28;45372;-83
2021/04/02 10:18:15;;;;;;;6.35;4.13;;;;;;;23.09;34.27;98065.94;4978052;28;45325;-83
2021/04/02 10:20:40;;;;;;;6.40;3.92;;;;;;;23.33;36.15;98063.13;4977207;28;45319;-85
2021/04/02 10:23:06;;;;;;;7.60;4.00;;;;;;;22.68;34.38;98059.69;4980050;28;45343;-85
2021/04/02 10:25:31;;;;;;;6.68;3.92;;;;;;;22.86;34.75;98054.09;4971113;28;45339;-82
2021/04/02 10:27:57;;;;;;;8.27;4.20;;;;;;;22.79;36.58;98044.47;4960644;28;45388;-81
2021/04/02 10:30:23;;;;;;;10.07;4.18;;;;;;;22.65;35.93;98047.47;4968592;28;45529;-83
2021/04/02 10:32:48;;;;;;;7.55;4.35;;;;;;;22.51;38.65;98043.34;4976552;28;45477;-82
2021/04/02 10:35:14;;;;;;;10.15;4.57;;;;;;;22.76;37.03;98034.91;4975486;28;45399;-83
2021/04/02 10:37:39;;;;;;;8.40;4.43;;;;;;;22.73;35.71;98033.53;4983516;28;45415;-82
2021/04/02 10:40:05;;;;;;;11.60;3.97;;;;;;;22.65;37.21;98027.66;4979018;28;45405;-88
2021/04/02 10:42:31;;;;;;;9.23;3.33;;;;;;;22.67;35.87;98020.09;4983228;28;45702;-82
2021/04/02 10:44:56;;;;;;;9.07;3.58;;;;;;;22.40;34.04;98032.25;4975893;28;45493;-84
2021/04/02 10:47:22;;;;;;;6.97;3.30;;;;;;;22.42;36.70;98018.50;4968022;28;45525;-84
2021/04/02 10:49:47;;;;;;;8.27;2.95;;;;;;;22.65;36.20;98012.22;4971084;28;45518;-81
2021/04/02 10:52:13;;;;;;;6.40;3.10;;;;;;;22.47;35.05;98012.38;4974037;28;45576;-80
2021/04/02 10:54:38;;;;;;;7.25;2.90;;;;;;;22.54;35.87;98005.78;4967137;28;46140;-80
2021/04/02 10:57:05;;;;;;;7.10;3.03;;;;;;;22.49;37.43;97994.00;4971822;28;45474;-81
2021/04/02 10:59:30;;;;;;;5.70;3.25;;;;;;;22.29;35.66;97997.91;4960757;28;45378;-81
2021/04/02 11:01:56;;;;;;;10.20;2.97;;;;;;;22.49;37.23;97989.41;4969225;28;45563;-81
2021/04/02 11:04:21;;;;;;;6.55;3.25;;;;;;;22.36;37.49;97995.88;4959906;28;48478;-82
2021/04/02 11:06:46;;;;;;;7.43;3.20;;;;;;;22.14;35.84;97993.81;4974766;28;45436;-83
2021/04/02 11:09:12;;;;;;;6.90;3.38;;;;;;;22.04;36.91;97992.75;4972383;28;45385;-81
2021/04/02 11:11:37;;;;;;;7.53;3.40;;;;;;;22.23;36.06;97990.75;4979435;28;45275;-87
2021/04/02 11:14:03;;;;;;;6.53;3.35;;;;;;;22.27;35.41;97978.38;4973547;28;47092;-86
2021/04/02 11:16:28;;;;;;;8.13;3.30;;;;;;;21.99;35.68;97988.88;4970900;28;45299;-87
2021/04/02 11:18:54;;;;;;;6.45;3.15;;;;;;;21.94;35.04;97983.34;4968511;28;45260;-87
2021/04/02 11:21:19;;;;;;;7.68;3.00;;;;;;;22.09;35.94;97984.75;4971430;28;45220;-87
2021/04/02 11:23:44;;;;;;;7.63;2.80;;;;;;;22.13;35.78;97975.13;4968352;28;46466;-87
2021/04/02 11:26:11;;;;;;;7.47;3.47;;;;;;;22.21;36.78;97985.56;4970724;28;45320;-86
2021/04/02 11:28:36;;;;;;;6.68;2.85;;;;;;;22.18;37.70;97975.22;4968393;28;45296;-87
2021/04/02 11:31:02;;;;;;;4.53;2.80;;;;;;;22.12;35.31;97973.47;4971354;28;45383;-86
2021/04/02 11:33:27;;;;;;;8.68;3.53;;;;;;;22.22;35.81;97968.25;4968368;28;45426;-86
2021/04/02 11:35:53;;;;;;;8.30;3.03;;;;;;;22.28;37.42;97956.47;4967270;28;45552;-87
2021/04/02 11:38:18;;;;;;;4.60;2.83;;;;;;;22.20;35.81;97959.56;4968201;28;45502;-88